Time;durP1;ratioP1;P1;durP2;ratioP2;P2;SDS_P1;SDS_P2;PMS_P1;PMS_P2;Temp;Humidity;BMP_temperature;BMP_pressure;BME280_temperature;BME280_humidity;BME280_pressure;Samples;Min_cycle;Max_cycle;Signal;HPM_P1;HPM_P2
2024/04/01 00:00:59;;;;;;;16.83;16.43;;;20.70;68.10;;;;;;5063016;28;20435;-65
2024/04/01 00:03:26;;;;;;;17.37;16.87;;;20.70;68.10;;;;;;5060810;28;20460;-65
2024/04/01 00:05:53;;;;;;;17.20;16.70;;;20.70;68.20;;;;;;5060715;28;20490;-64
2024/04/01 00:08:21;;;;;;;17.87;17.37;;;20.70;68.10;;;;;;5063935;28;20439;-65
2024/04/01 00:10:48;;;;;;;17.83;17.33;;;20.70;68.00;;;;;;5064168;28;20566;-64
2024/04/01 00:13:15;;;;;;;18.90;18.40;;;20.70;68.00;;;;;;5060484;28;20450;-66
2024/04/01 00:15:41;;;;;;;17.00;16.50;;;20.70;68.00;;;;;;5060829;28;20444;-65
2024/04/01 00:18:08;;;;;;;17.20;16.70;;;20.70;68.00;;;;;;5062909;28;20443;-65
2024/04/01 00:20:33;;;;;;;17.90;17.40;;;20.70;68.10;;;;;;5063950;28;20664;-64
2024/04/01 00:23:00;;;;;;;18.50;17.90;;;20.70;68.30;;;;;;5062484;28;20454;-64
2024/04/01 00:25:26;;;;;;;18.10;17.50;;;20.70;68.50;;;;;;5060491;28;20222;-65
2024/04/01 00:27:54;;;;;;;17.83;17.13;;;20.70;68.60;;;;;;5060519;28;20815;-64
2024/04/01 00:30:20;;;;;;;16.70;16.20;;;20.70;68.60;;;;;;5063509;28;20664;-65
2024/04/01 00:32:47;;;;;;;17.30;16.80;;;20.70;68.70;;;;;;5063753;28;20533;-64
2024/04/01 00:35:15;;;;;;;17.00;16.50;;;20.60;68.80;;;;;;5060584;28;20771;-65
2024/04/01 00:37:41;;;;;;;16.50;16.10;;;20.70;68.80;;;;;;5060211;28;20448;-64
2024/04/01 00:40:08;;;;;;;16.97;16.47;;;20.60;68.70;;;;;;5062085;28;20943;-64
2024/04/01 00:42:35;;;;;;;18.10;17.30;;;20.70;68.80;;;;;;5063803;28;20431;-65
2024/04/01 00:45:03;;;;;;;17.10;16.60;;;20.60;68.60;;;;;;5062181;28;20466;-64
2024/04/01 00:47:31;;;;;;;16.87;16.37;;;20.70;68.70;;;;;;5060290;28;20811;-64
2024/04/01 00:49:57;;;;;;;16.53;16.13;;;20.60;68.70;;;;;;5060708;28;20463;-64
2024/04/01 00:52:25;;;;;;;17.57;17.07;;;20.60;68.50;;;;;;5063401;28;21019;-65
2024/04/01 00:54:52;;;;;;;18.07;17.50;;;20.60;68.50;;;;;;5063542;28;20470;-64
2024/04/01 00:57:21;;;;;;;17.90;17.40;;;20.60;68.40;;;;;;5051762;28;20935;-64
2024/04/01 00:59:48;;;;;;;17.57;17.07;;;20.60;68.30;;;;;;5059685;28;20444;-64
2024/04/01 01:02:16;;;;;;;17.13;16.53;;;20.60;68.40;;;;;;5062725;28;20946;-65
2024/04/01 01:04:44;;;;;;;17.33;16.83;;;20.60;68.20;;;;;;5063260;28;20459;-64
2024/04/01 01:07:12;;;;;;;17.70;17.10;;;20.60;68.10;;;;;;5060790;28;20958;-64
2024/04/01 01:09:39;;;;;;;17.13;16.60;;;20.60;68.10;;;;;;5059446;28;20467;-65
2024/04/01 01:12:07;;;;;;;18.30;17.70;;;20.60;68.00;;;;;;5061494;28;20471;-64
2024/04/01 01:14:32;;;;;;;17.40;16.90;;;20.60;68.80;;;;;;5062975;28;20475;-64
2024/04/01 01:17:00;;;;;;;17.73;17.23;;;20.60;68.00;;;;;;5062172;28;20447;-65
2024/04/01 01:19:27;;;;;;;17.07;16.57;;;20.60;67.90;;;;;;5058805;28;20213;-64
2024/04/01 01:22:03;;;;;;;18.63;18.03;;;20.60;67.80;;;;;;5059675;28;20994;-65
2024/04/01 01:24:32;;;;;;;17.20;16.70;;;20.60;68.10;;;;;;5063226;28;20458;-64
2024/04/01 01:26:59;;;;;;;17.53;16.93;;;20.60;68.10;;;;;;5062203;28;20447;-65
2024/04/01 01:29:29;;;;;;;17.10;16.60;;;20.60;68.20;;;;;;5059183;28;20927;-64
2024/04/01 01:31:58;;;;;;;17.10;16.60;;;20.60;68.30;;;;;;5059501;28;20529;-64
2024/04/01 01:34:25;;;;;;;17.53;16.93;;;20.60;68.50;;;;;;5062946;28;20837;-65
2024/04/01 01:36:52;;;;;;;17.57;17.07;;;20.60;68.60;;;;;;5062914;28;20449;-64
2024/04/01 01:39:18;;;;;;;17.60;17.10;;;20.60;68.70;;;;;;5059379;28;20442;-64
2024/04/01 01:41:46;;;;;;;16.93;16.43;;;20.60;68.70;;;;;;5057333;28;20519;-65
2024/04/01 01:44:12;;;;;;;17.80;17.20;;;20.60;68.70;;;;;;5064038;28;20591;-64
2024/04/01 01:46:39;;;;;;;17.83;17.33;;;20.60;68.60;;;;;;5059843;28;20449;-65
2024/04/01 01:49:04;;;;;;;17.90;17.40;;;20.60;68.50;;;;;;5060703;28;20204;-64
2024/04/01 01:51:32;;;;;;;18.93;18.43;;;20.60;68.40;;;;;;5058094;28;20467;-65
2024/04/01 01:53:57;;;;;;;17.87;17.37;;;20.60;68.40;;;;;;5059824;28;20764;-65
2024/04/01 01:56:24;;;;;;;18.70;18.10;;;20.60;68.30;;;;;;5062966;28;20530;-65
2024/04/01 01:58:52;;;;;;;17.40;16.90;;;20.50;68.10;;;;;;5062661;28;20201;-65
2024/04/01 02:01:18;;;;;;;18.73;18.13;;;20.60;68.10;;;;;;5059353;28;20461;-65
2024/04/01 02:03:44;;;;;;;18.10;17.60;;;20.50;68.00;;;;;;5060055;28;20458;-65
2024/04/01 02:06:11;;;;;;;17.80;17.30;;;20.50;68.00;;;;;;5060775;28;20443;-65
2024/04/01 02:08:37;;;;;;;18.00;17.50;;;20.50;67.90;;;;;;5059080;28;20202;-65
2024/04/01 02:11:04;;;;;;;20.30;19.70;;;20.50;67.80;;;;;;5058956;28;20448;-64
2024/04/01 02:13:30;;;;;;;18.90;18.40;;;20.50;67.90;;;;;;5062661;28;20225;-64
2024/04/01 02:16:07;;;;;;;18.90;18.40;;;20.50;67.90;;;;;;5105295;22;20859;-61
2024/04/01 02:18:32;;;;;;;19.43;18.93;;;20.50;67.80;;;;;;5073238;28;20197;-61
2024/04/01 02:20:59;;;;;;;18.83;18.33;;;20.50;67.80;;;;;;5078289;28;20485;-60
2024/04/01 02:23:31;;;;;;;19.00;18.50;;;20.50;67.80;;;;;;5082719;28;20590;-60
2024/04/01 02:26:00;;;;;;;19.10;18.60;;;20.50;67.70;;;;;;5082609;28;20557;-62
2024/04/01 02:28:26;;;;;;;19.73;19.20;;;20.50;67.60;;;;;;5078934;28;20440;-61
2024/04/01 02:30:53;;;;;;;19.37;18.87;;;20.50;67.70;;;;;;5081727;28;20439;-60
2024/04/01 02:33:20;;;;;;;17.80;17.30;;;20.50;67.60;;;;;;5085893;28;20470;-61
2024/04/01 02:35:47;;;;;;;17.50;17.00;;;20.40;67.80;;;;;;5086323;28;20458;-62
2024/04/01 02:38:13;;;;;;;18.13;17.63;;;20.50;68.00;;;;;;5083645;28;20465;-61
2024/04/01 02:40:40;;;;;;;17.90;17.33;;;20.50;68.30;;;;;;5082638;28;20435;-59
2024/04/01 02:43:05;;;;;;;18.70;17.90;;;20.50;68.30;;;;;;5083142;28;20201;-61
2024/04/01 02:45:32;;;;;;;18.10;17.60;;;20.40;68.40;;;;;;5086139;28;20973;-60
2024/04/01 02:47:58;;;;;;;18.00;17.40;;;20.50;68.50;;;;;;5085849;28;20211;-60
2024/04/01 02:50:26;;;;;;;17.37;16.87;;;20.50;68.50;;;;;;5078024;28;20809;-61
2024/04/01 02:52:52;;;;;;;17.67;17.17;;;20.40;68.50;;;;;;5085909;28;20217;-61
2024/04/01 02:55:19;;;;;;;17.47;16.97;;;20.40;68.50;;;;;;5082952;28;21001;-61
2024/04/01 02:57:45;;;;;;;18.83;18.13;;;20.40;68.40;;;;;;5082581;28;20201;-61
2024/04/01 03:00:16;;;;;;;17.30;16.80;;;20.40;68.40;;;;;;5083068;28;20435;-61
2024/04/01 03:02:42;;;;;;;18.50;18.00;;;20.40;68.40;;;;;;5085906;28;20214;-61
2024/04/01 03:05:09;;;;;;;18.57;18.07;;;20.40;68.30;;;;;;5084364;28;20458;-61
2024/04/01 03:07:36;;;;;;;17.90;17.40;;;20.40;68.30;;;;;;5082261;28;20435;-59
2024/04/01 03:10:04;;;;;;;18.30;17.80;;;20.40;68.20;;;;;;5081608;28;20446;-59
2024/04/01 03:12:29;;;;;;;19.17;18.57;;;20.40;68.10;;;;;;5085589;28;20478;-60
2024/04/01 03:14:56;;;;;;;18.10;17.60;;;20.40;68.10;;;;;;5085462;28;20465;-61
2024/04/01 03:17:23;;;;;;;18.70;18.20;;;20.40;68.10;;;;;;5082084;28;20197;-61
2024/04/01 03:19:49;;;;;;;18.27;17.77;;;20.40;68.10;;;;;;5080942;28;20946;-59
2024/04/01 03:22:15;;;;;;;18.47;17.97;;;20.40;68.00;;;;;;5084356;28;20435;-61
2024/04/01 03:24:43;;;;;;;19.13;18.53;;;20.40;67.90;;;;;;5085462;28;20473;-61
2024/04/01 03:27:10;;;;;;;18.20;17.60;;;20.40;67.80;;;;;;5083745;28;20306;-60
2024/04/01 03:29:36;;;;;;;19.00;18.40;;;20.40;67.80;;;;;;5080825;28;20436;-60
2024/04/01 03:32:03;;;;;;;18.70;18.20;;;20.40;67.80;;;;;;5082201;28;20478;-61
2024/04/01 03:34:30;;;;;;;18.20;17.63;;;20.40;67.70;;;;;;5085045;28;20888;-60
2024/04/01 03:36:57;;;;;;;18.47;17.97;;;20.40;67.70;;;;;;5085074;28;20556;-61
2024/04/01 03:39:24;;;;;;;18.70;18.20;;;20.40;67.70;;;;;;5080638;28;20493;-60
2024/04/01 03:41:52;;;;;;;18.60;18.00;;;20.40;67.80;;;;;;5080904;28;20436;-60
2024/04/01 03:44:19;;;;;;;19.83;19.23;;;20.40;67.80;;;;;;5083825;28;20463;-60
2024/04/01 03:46:44;;;;;;;18.40;17.90;;;20.40;68.00;;;;;;5084875;28;20445;-60
2024/04/01 03:49:11;;;;;;;18.37;17.87;;;20.40;68.20;;;;;;5082970;28;20438;-61
2024/04/01 03:51:37;;;;;;;18.60;17.83;;;20.40;68.40;;;;;;5080717;28;20248;-61
2024/04/01 03:54:04;;;;;;;18.90;18.30;;;20.40;68.40;;;;;;5081496;28;20450;-61
2024/04/01 03:56:30;;;;;;;19.00;18.40;;;20.40;68.50;;;;;;5084609;28;20446;-60
2024/04/01 03:58:58;;;;;;;18.80;18.23;;;20.30;68.50;;;;;;5083703;28;20434;-61
2024/04/01 04:01:23;;;;;;;18.13;17.53;;;20.40;68.60;;;;;;5081384;28;20192;-62
2024/04/01 04:03:50;;;;;;;18.60;18.00;;;20.40;68.50;;;;;;5081127;28;20461;-60
2024/04/01 04:06:16;;;;;;;18.40;17.90;;;20.40;68.60;;;;;;5083266;28;20225;-61
2024/04/01 04:08:47;;;;;;;19.40;18.90;;;20.40;68.50;;;;;;5083588;28;20816;-60
2024/04/01 04:11:13;;;;;;;18.90;18.33;;;20.30;68.40;;;;;;5082755;28;20204;-59
2024/04/01 04:13:39;;;;;;;18.63;18.03;;;20.30;68.40;;;;;;5080992;28;20465;-58
2024/04/01 04:16:07;;;;;;;18.23;17.73;;;20.30;68.20;;;;;;5081249;28;20463;-59
2024/04/01 04:18:34;;;;;;;18.60;18.00;;;20.30;68.20;;;;;;5083428;28;20450;-61
2024/04/01 04:21:00;;;;;;;18.80;18.20;;;20.30;68.10;;;;;;5084314;28;20836;-60
2024/04/01 04:23:28;;;;;;;18.90;18.40;;;20.30;68.10;;;;;;5080768;28;20443;-60
2024/04/01 04:25:53;;;;;;;18.83;18.33;;;20.30;68.10;;;;;;5080700;28;20290;-61
2024/04/01 04:28:20;;;;;;;19.70;19.10;;;20.30;68.00;;;;;;5081996;28;20431;-60
2024/04/01 04:30:46;;;;;;;18.47;17.97;;;20.30;67.90;;;;;;5083987;28;20200;-61
2024/04/01 04:33:14;;;;;;;18.83;18.33;;;20.30;67.80;;;;;;5082771;28;20991;-61
2024/04/01 04:35:41;;;;;;;19.40;18.80;;;20.30;67.70;;;;;;5080493;28;20225;-61
2024/04/01 04:38:08;;;;;;;19.07;18.47;;;20.30;67.60;;;;;;5080287;28;20436;-61
2024/04/01 04:40:35;;;;;;;19.70;19.00;;;20.30;67.70;;;;;;5083531;28;20445;-62
2024/04/01 04:43:00;;;;;;;19.00;18.47;;;20.30;68.00;;;;;;5084004;28;20856;-63
2024/04/01 04:45:28;;;;;;;19.00;18.50;;;20.30;68.20;;;;;;5080357;28;20470;-63
2024/04/01 04:47:54;;;;;;;19.57;18.97;;;20.30;68.30;;;;;;5079707;28;20253;-62
2024/04/01 04:50:22;;;;;;;18.40;17.90;;;20.30;68.40;;;;;;5082180;28;20821;-62
2024/04/01 04:52:48;;;;;;;20.30;19.70;;;20.30;68.40;;;;;;5083666;28;20208;-63
2024/04/01 04:55:16;;;;;;;20.33;19.73;;;20.30;68.50;;;;;;5081909;28;20808;-63
2024/04/01 04:57:41;;;;;;;20.10;19.50;;;20.30;68.70;;;;;;5080234;28;20806;-63
2024/04/01 05:00:21;;;;;;;19.87;19.27;;;20.30;69.00;;;;;;5079598;28;20440;-63
2024/04/01 05:02:47;;;;;;;18.80;18.30;;;20.30;69.20;;;;;;5081212;28;20249;-63
2024/04/01 05:05:14;;;;;;;19.80;19.20;;;20.20;69.20;;;;;;5081155;28;20459;-63
2024/04/01 05:07:43;;;;;;;21.20;20.50;;;20.30;69.60;;;;;;5083587;28;20200;-63
2024/04/01 05:10:11;;;;;;;20.43;19.80;;;20.20;69.50;;;;;;5075427;28;20790;-63
2024/04/01 05:12:37;;;;;;;20.40;19.70;;;20.20;69.60;;;;;;5083334;28;20498;-63
2024/04/01 05:15:05;;;;;;;20.27;19.63;;;20.20;69.80;;;;;;5083367;28;20528;-62
2024/04/01 05:17:31;;;;;;;19.80;19.20;;;20.30;69.80;;;;;;5071965;28;20228;-62
2024/04/01 05:19:58;;;;;;;19.70;19.10;;;20.30;69.60;;;;;;5078912;28;20472;-62
2024/04/01 05:22:24;;;;;;;20.03;19.43;;;20.30;69.80;;;;;;5082444;28;20204;-64
2024/04/01 05:24:52;;;;;;;19.43;18.83;;;20.30;70.50;;;;;;5083220;28;20454;-64
2024/04/01 05:27:17;;;;;;;18.70;18.20;;;20.30;70.00;;;;;;5081785;28;20207;-65
2024/04/01 05:29:44;;;;;;;19.53;18.90;;;20.30;70.10;;;;;;5078876;28;20435;-67
2024/04/01 05:32:10;;;;;;;20.17;19.57;;;20.40;70.30;;;;;;5079721;28;20600;-66
2024/04/01 05:34:38;;;;;;;19.37;18.77;;;20.40;70.40;;;;;;5083154;28;20454;-65
2024/04/01 05:37:05;;;;;;;18.50;18.00;;;20.40;70.60;;;;;;5083419;28;20257;-65
2024/04/01 05:39:32;;;;;;;19.40;18.80;;;20.50;70.60;;;;;;5071346;28;20431;-63
2024/04/01 05:42:00;;;;;;;18.50;17.90;;;20.40;70.60;;;;;;5080154;28;20462;-67
2024/04/01 05:44:25;;;;;;;19.00;18.40;;;20.50;71.10;;;;;;5082232;28;20473;-64
2024/04/01 05:46:52;;;;;;;15.77;15.27;;;20.60;71.30;;;;;;5082174;28;20432;-64
2024/04/01 05:49:18;;;;;;;20.57;19.90;;;20.60;71.50;;;;;;5073847;28;20197;-62
2024/04/01 05:51:45;;;;;;;20.87;20.23;;;20.60;71.50;;;;;;5083814;28;20441;-63
2024/04/01 05:54:10;;;;;;;20.03;19.40;;;20.70;72.00;;;;;;5082932;28;20286;-64
2024/04/01 05:56:37;;;;;;;20.13;19.33;;;20.70;71.60;;;;;;5079599;28;20442;-61
2024/04/01 05:59:04;;;;;;;19.90;19.00;;;20.80;71.30;;;;;;5078501;28;20560;-62
2024/04/01 06:01:31;;;;;;;20.90;20.00;;;20.70;71.70;;;;;;5082854;28;20500;-63
2024/04/01 06:03:57;;;;;;;20.47;19.87;;;20.70;72.70;;;;;;5083275;28;20814;-67
2024/04/01 06:06:24;;;;;;;19.80;19.17;;;20.70;72.10;;;;;;5084484;28;20438;-63
2024/04/01 06:08:50;;;;;;;20.80;20.20;;;20.70;71.90;;;;;;5078090;28;20568;-64
2024/04/01 06:11:16;;;;;;;20.83;20.13;;;20.70;71.80;;;;;;5084815;28;20904;-62
2024/04/01 06:13:44;;;;;;;20.90;20.20;;;20.70;71.80;;;;;;5086740;28;21014;-66
2024/04/01 06:16:13;;;;;;;20.50;19.80;;;20.70;71.60;;;;;;5085962;28;20477;-67
2024/04/01 06:18:39;;;;;;;21.57;20.87;;;20.80;71.70;;;;;;5082033;28;20996;-66
2024/04/01 06:21:06;;;;;;;21.03;20.27;;;20.70;71.60;;;;;;5083249;28;20443;-60
2024/04/01 06:23:31;;;;;;;22.13;21.43;;;20.70;71.60;;;;;;5086228;28;20249;-63
2024/04/01 06:25:58;;;;;;;21.83;21.10;;;20.70;71.70;;;;;;5086502;28;20466;-62
2024/04/01 06:28:25;;;;;;;21.33;20.53;;;20.70;71.90;;;;;;5083088;28;20211;-63
2024/04/01 06:30:51;;;;;;;22.67;21.87;;;20.70;72.10;;;;;;5082918;28;20467;-64
2024/04/01 06:33:19;;;;;;;22.77;22.00;;;20.70;72.10;;;;;;5083822;28;20506;-64
2024/04/01 06:35:45;;;;;;;21.63;20.63;;;20.80;71.70;;;;;;5085807;28;20896;-64
2024/04/01 06:38:13;;;;;;;23.47;22.37;;;20.80;71.50;;;;;;5085155;28;20438;-61
2024/04/01 06:40:38;;;;;;;21.27;20.40;;;20.90;71.40;;;;;;5082739;28;20197;-64
2024/04/01 06:43:05;;;;;;;18.90;18.20;;;20.90;70.90;;;;;;5080605;28;20513;-62
2024/04/01 06:45:31;;;;;;;21.80;21.10;;;20.90;71.70;;;;;;5085592;28;20242;-64
2024/04/01 06:47:58;;;;;;;20.80;20.10;;;21.00;70.90;;;;;;5085027;28;20443;-63
2024/04/01 06:50:25;;;;;;;22.60;21.80;;;21.00;70.50;;;;;;5084115;28;20569;-64
2024/04/01 06:52:51;;;;;;;22.23;21.53;;;21.00;70.10;;;;;;5085772;28;20497;-62
2024/04/01 06:55:17;;;;;;;23.47;22.67;;;20.90;69.80;;;;;;5084637;28;20462;-63
2024/04/01 06:57:44;;;;;;;24.30;23.30;;;20.90;69.70;;;;;;5081863;28;20431;-63
2024/04/01 07:00:11;;;;;;;21.90;21.20;;;20.90;69.60;;;;;;5081918;28;20205;-63
2024/04/01 07:02:38;;;;;;;22.63;21.93;;;20.90;69.70;;;;;;5085646;28;20438;-63
2024/04/01 07:05:04;;;;;;;22.10;21.27;;;20.90;69.80;;;;;;5085744;28;20796;-63
2024/04/01 07:07:32;;;;;;;22.87;22.07;;;20.80;69.80;;;;;;5082118;28;20863;-63
2024/04/01 07:09:58;;;;;;;23.43;22.43;;;20.80;69.70;;;;;;5081718;28;20436;-62
2024/04/01 07:12:25;;;;;;;22.50;21.80;;;20.80;70.00;;;;;;5083906;28;20819;-64
2024/04/01 07:14:51;;;;;;;22.73;21.90;;;20.80;70.90;;;;;;5080244;28;20630;-63
2024/04/01 07:17:18;;;;;;;21.77;20.93;;;20.80;70.30;;;;;;5081561;28;20450;-63
2024/04/01 07:19:43;;;;;;;22.20;21.50;;;20.80;70.50;;;;;;5085058;28;20632;-63
2024/04/01 07:22:10;;;;;;;21.30;20.60;;;20.80;70.70;;;;;;5085428;28;20441;-61
2024/04/01 07:24:37;;;;;;;22.47;21.67;;;20.80;71.60;;;;;;5082183;28;20228;-63
2024/04/01 07:27:04;;;;;;;21.20;20.50;;;20.80;70.90;;;;;;5077378;28;21030;-63
2024/04/01 07:29:30;;;;;;;22.63;21.83;;;20.80;71.10;;;;;;5076015;28;20521;-64
2024/04/01 07:31:57;;;;;;;22.03;21.33;;;20.80;71.00;;;;;;5081834;28;20523;-63
2024/04/01 07:34:23;;;;;;;23.20;22.43;;;20.80;71.20;;;;;;5083230;28;20308;-63
2024/04/01 07:36:49;;;;;;;21.07;20.37;;;20.80;71.20;;;;;;5082147;28;21033;-64
2024/04/01 07:39:16;;;;;;;22.60;21.80;;;20.80;71.60;;;;;;5081717;28;20295;-62
2024/04/01 07:41:44;;;;;;;22.53;21.43;;;20.80;71.70;;;;;;5078638;28;20929;-62
2024/04/01 07:44:10;;;;;;;24.07;23.17;;;20.80;71.60;;;;;;5069643;28;20437;-61
2024/04/01 07:46:37;;;;;;;22.10;21.40;;;20.80;71.80;;;;;;5084642;28;20783;-62
2024/04/01 07:49:02;;;;;;;22.70;22.00;;;20.80;72.00;;;;;;5084556;28;20204;-61
2024/04/01 07:51:29;;;;;;;22.60;21.90;;;20.80;71.80;;;;;;5080768;28;20439;-62
2024/04/01 07:53:56;;;;;;;23.37;22.60;;;20.80;71.90;;;;;;5083728;28;20212;-60
2024/04/01 07:56:23;;;;;;;22.50;21.80;;;20.80;72.10;;;;;;5080410;28;20440;-62
2024/04/01 07:58:50;;;;;;;22.80;21.80;;;20.80;72.30;;;;;;5084350;28;20933;-59
2024/04/01 08:01:17;;;;;;;22.60;21.70;;;20.80;72.30;;;;;;5081469;28;20502;-61
2024/04/01 08:03:43;;;;;;;23.73;22.63;;;20.90;72.10;;;;;;5084656;28;20431;-62
2024/04/01 08:06:09;;;;;;;23.77;22.57;;;21.00;72.00;;;;;;5078965;28;20466;-62
2024/04/01 08:08:35;;;;;;;22.73;21.87;;;21.00;72.00;;;;;;5088004;28;20267;-63
2024/04/01 08:11:02;;;;;;;23.20;22.40;;;21.00;71.60;;;;;;5084971;28;20468;-63
2024/04/01 08:13:28;;;;;;;23.17;22.40;;;21.10;71.40;;;;;;5084265;28;20213;-61
2024/04/01 08:16:05;;;;;;;23.80;23.00;;;21.10;71.20;;;;;;5084329;28;21080;-61
2024/04/01 08:18:31;;;;;;;22.63;21.93;;;21.10;71.20;;;;;;5081308;28;20270;-61
2024/04/01 08:20:59;;;;;;;22.93;22.23;;;21.20;70.90;;;;;;5080757;28;20431;-63
2024/04/01 08:23:25;;;;;;;22.43;21.73;;;21.20;70.60;;;;;;5079801;28;20250;-61
2024/04/01 08:25:52;;;;;;;23.00;22.03;;;21.20;70.50;;;;;;5106126;22;20488;-62
2024/04/01 08:28:18;;;;;;;24.40;23.50;;;21.30;70.50;;;;;;5072158;28;20443;-63
2024/04/01 08:30:46;;;;;;;23.57;22.77;;;21.30;70.40;;;;;;5073036;28;20465;-64
2024/04/01 08:33:13;;;;;;;23.87;22.57;;;21.30;70.70;;;;;;5072762;28;20479;-63
2024/04/01 08:35:40;;;;;;;23.67;22.87;;;21.30;70.20;;;;;;5063992;28;20483;-65
2024/04/01 08:38:06;;;;;;;22.77;21.97;;;21.40;70.10;;;;;;5072364;28;20439;-64
2024/04/01 08:40:35;;;;;;;23.00;22.30;;;21.40;70.00;;;;;;5071817;28;20448;-64
2024/04/01 08:43:08;;;;;;;23.97;23.17;;;21.40;69.60;;;;;;5073761;28;20204;-66
2024/04/01 08:45:36;;;;;;;23.33;22.57;;;21.40;69.50;;;;;;5074898;28;20498;-66
2024/04/01 08:48:09;;;;;;;24.33;23.40;;;21.40;69.40;;;;;;5073612;28;20444;-65
2024/04/01 08:50:41;;;;;;;23.97;23.17;;;21.40;69.30;;;;;;5073501;28;20455;-64
2024/04/01 08:53:12;;;;;;;23.40;22.60;;;21.50;70.40;;;;;;5071905;28;20486;-64
2024/04/01 08:55:38;;;;;;;22.60;21.90;;;21.50;69.40;;;;;;5071825;28;20466;-64
2024/04/01 08:58:05;;;;;;;22.93;22.13;;;21.50;69.00;;;;;;5071669;28;20502;-65
2024/04/01 09:00:31;;;;;;;21.80;21.10;;;21.50;68.80;;;;;;5071567;28;20203;-66
2024/04/01 09:02:59;;;;;;;22.43;21.73;;;21.60;68.70;;;;;;5072001;28;20431;-66
2024/04/01 09:05:25;;;;;;;22.90;22.20;;;21.60;68.50;;;;;;5071669;28;20231;-66
2024/04/01 09:07:54;;;;;;;22.60;21.90;;;21.60;69.00;;;;;;5071987;28;20439;-67
2024/04/01 09:10:21;;;;;;;24.63;23.73;;;21.60;68.20;;;;;;5071072;28;20440;-65
2024/04/01 09:12:48;;;;;;;22.50;21.80;;;21.60;68.10;;;;;;5071881;28;20537;-66
2024/04/01 09:15:15;;;;;;;22.70;21.90;;;21.60;67.90;;;;;;5072014;28;20905;-64
2024/04/01 09:17:43;;;;;;;23.23;22.53;;;21.70;67.70;;;;;;5071914;28;20534;-69
2024/04/01 09:20:09;;;;;;;23.07;22.27;;;21.70;67.90;;;;;;5071249;28;20439;-68
2024/04/01 09:22:36;;;;;;;22.30;21.60;;;21.70;68.00;;;;;;5071864;28;20588;-66
2024/04/01 09:25:04;;;;;;;23.50;22.37;;;21.80;68.70;;;;;;5071126;28;20809;-67
2024/04/01 09:27:31;;;;;;;22.90;22.13;;;21.80;67.90;;;;;;5071489;28;20443;-68
2024/04/01 09:29:57;;;;;;;23.03;22.33;;;21.80;68.40;;;;;;5071311;28;20439;-67
2024/04/01 09:32:24;;;;;;;22.50;21.70;;;21.80;68.40;;;;;;5071334;28;20447;-66
2024/04/01 09:34:55;;;;;;;22.50;21.80;;;21.80;68.30;;;;;;5071352;28;20782;-67
2024/04/01 09:37:22;;;;;;;22.90;22.10;;;21.80;68.40;;;;;;5071372;28;20439;-67
2024/04/01 09:39:48;;;;;;;22.80;22.10;;;21.80;68.30;;;;;;5072643;28;20440;-66
2024/04/01 09:42:16;;;;;;;21.70;20.90;;;21.80;67.90;;;;;;5075513;28;20439;-67
2024/04/01 09:44:42;;;;;;;22.07;21.37;;;21.80;67.20;;;;;;5075017;28;21000;-64
2024/04/01 09:47:09;;;;;;;21.70;20.70;;;21.80;66.90;;;;;;5075538;28;20444;-61
2024/04/01 09:49:37;;;;;;;21.20;20.50;;;21.80;67.20;;;;;;5074911;28;20205;-62
2024/04/01 09:52:07;;;;;;;22.43;21.53;;;21.90;66.60;;;;;;5075504;28;20427;-62
2024/04/01 09:54:33;;;;;;;21.20;20.20;;;21.90;66.20;;;;;;5074842;28;20482;-62
2024/04/01 09:57:38;;;;;;;21.67;20.97;;;21.90;66.00;;;;;;5075348;28;20447;-63
2024/04/01 10:00:15;;;;;;;21.13;20.42;;;22.00;66.10;;;;;;5068746;28;20465;-63
2024/04/01 10:03:15;;;;;;;21.43;20.63;;;21.90;66.60;;;;;;5075042;28;20188;-62
2024/04/01 10:06:15;;;;;;;22.13;21.43;;;21.90;66.70;;;;;;5074884;28;20454;-63
2024/04/01 10:09:13;;;;;;;21.53;20.80;;;21.90;67.40;;;;;;5074592;28;20576;-63
2024/04/01 10:11:59;;;;;;;22.20;21.40;;;21.90;67.10;;;;;;5074960;28;20520;-61
2024/04/01 10:14:53;;;;;;;21.23;20.60;;;21.90;68.20;;;;;;5074355;28;20471;-62
2024/04/01 10:17:43;;;;;;;22.00;21.30;;;21.90;68.80;;;;;;5079789;28;20442;-63
2024/04/01 10:20:25;;;;;;;20.30;19.60;;;22.00;67.80;;;;;;5074570;28;20942;-60
2024/04/01 10:23:32;;;;;;;21.40;20.73;;;22.00;67.20;;;;;;5078250;28;20467;-60
2024/04/01 10:26:32;;;;;;;20.55;19.27;;;22.00;67.80;;;;;;5055140;28;20508;-64
2024/04/01 10:29:54;;;;;;;22.10;20.90;;;22.10;68.80;;;;;;5059801;28;20203;-69
2024/04/01 10:32:53;;;;;;;21.13;20.17;;;22.20;68.10;;;;;;4997966;28;20481;-67
2024/04/01 10:35:49;;;;;;;20.87;20.00;;;22.20;67.70;;;;;;5071070;28;20546;-69
2024/04/01 10:39:06;;;;;;;20.37;19.67;;;22.20;67.70;;;;;;5067339;28;20493;-66
2024/04/01 10:42:18;;;;;;;19.90;19.10;;;22.30;68.10;;;;;;5030993;28;20447;-66
2024/04/01 10:45:29;;;;;;;20.67;19.77;;;22.30;67.80;;;;;;5026922;28;20486;-66
2024/04/01 10:48:18;;;;;;;20.23;19.43;;;22.30;67.80;;;;;;5067245;28;20918;-66
2024/04/01 10:51:21;;;;;;;20.97;20.17;;;22.30;68.20;;;;;;5073755;28;20816;-66
2024/04/01 10:53:59;;;;;;;20.77;19.77;;;22.40;68.00;;;;;;5065811;28;20991;-66
2024/04/01 10:57:06;;;;;;;20.67;19.90;;;22.40;68.20;;;;;;5073781;28;20463;-66
2024/04/01 11:00:05;;;;;;;20.53;19.73;;;22.40;68.30;;;;;;5073356;28;20448;-66
2024/04/01 11:03:21;;;;;;;20.57;19.77;;;22.40;69.00;;;;;;5075057;28;20442;-71
2024/04/01 11:06:29;;;;;;;20.53;19.67;;;22.40;68.80;;;;;;5066212;28;20470;-69
2024/04/01 11:09:13;;;;;;;20.83;20.13;;;22.50;69.00;;;;;;5066507;28;20505;-68
2024/04/01 11:11:47;;;;;;;20.73;19.93;;;22.50;68.90;;;;;;5073718;28;20447;-68
2024/04/01 11:14:18;;;;;;;19.40;18.60;;;22.50;69.10;;;;;;5073071;28;20806;-68
2024/04/01 11:16:48;;;;;;;20.20;19.40;;;22.50;68.90;;;;;;5073905;28;20197;-69
2024/04/01 11:19:38;;;;;;;21.10;20.30;;;22.60;68.40;;;;;;5073441;28;20786;-65
2024/04/01 11:22:13;;;;;;;19.00;18.10;;;22.70;68.60;;;;;;5066953;28;20433;-64
2024/04/01 11:24:50;;;;;;;20.90;20.10;;;22.70;68.30;;;;;;5073411;28;20652;-67
2024/04/01 11:27:32;;;;;;;21.13;20.33;;;22.70;67.80;;;;;;5073590;28;20439;-67
2024/04/01 11:30:13;;;;;;;21.00;20.10;;;22.80;67.40;;;;;;5066250;28;20435;-66
2024/04/01 11:32:45;;;;;;;20.97;20.17;;;22.80;67.30;;;;;;5073057;28;20448;-64
2024/04/01 11:35:15;;;;;;;20.83;20.03;;;22.80;67.20;;;;;;5073087;28;20866;-66
2024/04/01 11:37:50;;;;;;;19.30;18.50;;;22.80;67.30;;;;;;5073546;28;20834;-65
2024/04/01 11:40:21;;;;;;;20.60;19.70;;;22.80;68.10;;;;;;5068369;28;20288;-65
2024/04/01 11:42:53;;;;;;;21.20;20.30;;;22.90;67.20;;;;;;5073280;28;20435;-64
2024/04/01 11:45:23;;;;;;;19.93;19.23;;;22.90;67.60;;;;;;5073002;28;20546;-67
2024/04/01 11:47:50;;;;;;;20.90;20.10;;;22.90;67.30;;;;;;5064718;28;20439;-68
2024/04/01 11:50:18;;;;;;;21.13;20.23;;;22.90;67.00;;;;;;5072654;28;20919;-68
2024/04/01 11:52:56;;;;;;;20.93;20.13;;;22.90;67.00;;;;;;5072385;28;20473;-68
2024/04/01 11:55:23;;;;;;;21.90;20.97;;;22.90;67.30;;;;;;5072815;28;20470;-67
2024/04/01 11:57:49;;;;;;;20.87;20.07;;;22.80;67.20;;;;;;5072934;28;20447;-68
2024/04/01 12:00:16;;;;;;;21.23;20.33;;;22.90;67.40;;;;;;5072543;28;20513;-65
2024/04/01 12:02:52;;;;;;;21.05;20.25;;;22.90;67.50;;;;;;5071937;28;20901;-66
2024/04/01 12:05:19;;;;;;;21.08;20.20;;;22.90;67.50;;;;;;5072668;28;20491;-68
2024/04/01 12:07:48;;;;;;;21.20;20.40;;;22.90;67.50;;;;;;5072649;28;20284;-65
2024/04/01 12:10:15;;;;;;;20.70;19.90;;;22.90;67.70;;;;;;5072262;28;20446;-66
2024/04/01 12:12:45;;;;;;;20.90;20.10;;;22.90;69.90;;;;;;5072642;28;20436;-69
2024/04/01 12:15:16;;;;;;;20.93;20.03;;;22.90;68.30;;;;;;5072427;28;20483;-68
2024/04/01 12:17:42;;;;;;;20.13;19.33;;;22.90;69.20;;;;;;5072510;28;20457;-68
2024/04/01 12:20:09;;;;;;;21.27;20.37;;;22.90;68.10;;;;;;5072117;28;20435;-70
2024/04/01 12:22:35;;;;;;;20.63;19.83;;;22.90;67.10;;;;;;5072549;28;20524;-70
2024/04/01 12:25:05;;;;;;;21.43;20.63;;;22.90;68.30;;;;;;5072342;28;21054;-68
2024/04/01 12:27:31;;;;;;;19.30;18.50;;;22.90;67.90;;;;;;5071441;28;20438;-67
2024/04/01 12:30:01;;;;;;;21.07;20.27;;;22.90;68.50;;;;;;5071946;28;20243;-68
2024/04/01 12:32:27;;;;;;;20.63;19.83;;;23.00;68.50;;;;;;5071888;28;20430;-64
2024/04/01 12:34:55;;;;;;;21.43;20.63;;;23.00;68.00;;;;;;5072232;28;20475;-69
2024/04/01 12:37:23;;;;;;;20.67;19.87;;;23.00;67.90;;;;;;5071909;28;20437;-65
2024/04/01 12:39:53;;;;;;;21.50;20.60;;;23.00;67.70;;;;;;5071822;28;20440;-68
2024/04/01 12:42:22;;;;;;;21.60;20.80;;;23.00;68.10;;;;;;5072209;28;20443;-65